気象予報士の航空気象 2010年05月

*All archives   *Admin

スポンサーサイト

上記の広告は1ヶ月以上更新のないブログに表示されています。
新しい記事を書く事で広告が消せます。
--:--  |  スポンサー広告  |  EDIT  |  Top↑

2010.05.31 (Mon)

ちょっとこい!ちょっとこい!!

RJTT 310500Z 11005KT 9999 FEW030 SCT/// 20/10 Q1012 RMK 1CU030 A2990


よい天気です。


近所の公園から大きな鳥の鳴き声が。。。


「ちょっと来い!ちょっと来い!」


変な泣き声だなぁと調べてみると、コジュケイというキジ科の鳥だということがわかりました。


目の前に鳥が横切り、急いでカメラを取りに帰り取ってみると、残念ながら鳩でした。


詐欺に合ったような気分。




ウィキペディアより

コジュケイ


コジュケイ



形態

小型のキジ類で体長は25cmほど。キジやヤマドリと違って尾が短く、ウズラに似ているが、ウズラよりは一回り大きい。オスメスは同色で褐色系の色彩だが、頬から喉にかけて鮮やかな赤褐色の部分が目立つ。腹部は他よりも明るめの黄色い地に黒褐色の斑紋がある。


分布

原産地は中国南部と台湾だが、20世紀はじめに狩猟の対象にするために日本に持ち込まれた外来種である。日本で初めて放鳥されたのは、1919年頃東京都と神奈川県とされている。それ以来野生個体は各地で繁殖し、いまや普通種となっている。温暖地方の鳥で寒さに弱く、分布は宮城県など東北地方南部が北限で、積雪の多い日本海側には分布しない。


亜種

コジュケイは中国大陸に分布する亜種B. t. thoracicus Temminck と台湾に分布する亜種B. t. sonorivox Gould に分けられる。台湾亜種はタイワンコジュケイ(別名でテッケイともいう。学名はB. sonorivox)とされることもある。

日本各地に生息するのは亜種B. t. thoracicusだが、亜種B. t. sonorivoxも兵庫県神戸市付近で野生化している。


生態

分布する地方では留鳥で一年中見られる。雑木林の豊富に残る田園地帯や里山などに多い。雑食性だが、植物の葉や実などの植物食が中心といわれる。その他、昆虫類やミミズなど。用心深い性格で、林の下生えや藪の中に潜み、あまり姿を見せないが、早朝~午前中にかけて、えさを探しに開けたところに複数の個体で出てくるのを目撃することが多い。

山地や平地の樹林はもちろんのこと、都会などの隔離された小さな林にもしばしば生息する。例えば少なくとも1973~76年には東京大学の三四郎池の周辺に生息していた。

繁殖期は5~6月で、このときのオスの鳴き声が特徴的である。ヒヨドリにも似た大きな叫び声を「ピーッ!ピーッ!ピピーッ!」と挙げたあと、速いテンポの「ピッピュクァイ!ピッピュクァイ!」という鳴き声に移行し、その後テンポが遅くなって鳴きやむ。「ピッピュクァイ!ピッピュクァイ!」の部分が「ちょっと来い!ちょっと来い!」、あるいは「ゴジュケイ!ゴジュケイ!」と聞きなされているので、「姿を知らなくても鳴き声は知っている」という人が多い。

繁殖期にはつがいで生活し、地面を浅く掘り枯れ草を敷いた巣を作る。産卵期は5-6月で7-8卵を産む。孵化した雛は短期間で巣から離れ、親とともに行動する。夏季には、よく雛を連れたつがいを見かける。また、1年に2回繁殖する。


ブログランキングに参加しています。
にほんブログ村 環境ブログ 天気・気象学へ
にほんブログ村
応援クリックをおねがします。


以下、アフィリエイトサイトです。




スポンサーサイト
20:21  |  ワタクシゴト  |  TB(0)  |  CM(0)  |  EDIT  |  Top↑

2010.05.30 (Sun)

竜巻発生確度ナウキャスト

 27日より、注意報・警報の発表の地域が細かくなりました。


同時に雷や竜巻に関する情報が向上します。


これで災害で被害を受ける方が減ってくれることを願います。




竜巻・雷予報、細かく提供へ
   警報発表は市町村ごとに―気象庁
     5月27日15時38分配信 時事通信


 気象庁は27日、現在の気象情報に加え、竜巻や落雷の発生が予想される場所を危険レベルごとに色分けして示す「竜巻発生確度ナウキャスト」と「雷ナウキャスト」の提供を始めた。

 局地的に突然発生する竜巻や雷について、ホームページ上で、1時間先までの予報を発表する。きめ細かく情報を伝え、行政や住民の防災に役立ててもらうのが狙いだ。

 一方、気象庁は同日、現在375の地域ごとに発表している大雨や洪水などの警報・注意報について、約1780の市町村単位での発表も始めた。

 ただ、発表の分量が大幅に増え分かりにくくなるとの指摘もあり、同庁によると、テレビやラジオでは、引き続き現在の地域ごとに報道されるケースも多いとみられるという。 




ブログランキングに参加しています。
にほんブログ村 環境ブログ 天気・気象学へ
にほんブログ村
応援クリックをおねがします。


以下、アフィリエイトサイトです。




19:26  |  気象・天気  |  TB(0)  |  CM(0)  |  EDIT  |  Top↑

2010.05.29 (Sat)

アイスランド火山収束

VA25MAY2010.jpg




いつのまにか、アイスランドの火山灰が収まっていたようですね。


その代わりに、ギリシャの財政に引火。


次は日本かも・・・



欧州火山灰動向予報 ← クリック



VA08MAY2010.jpg


火山灰が飛行機の運航に影響する理由に興味のある方は、下記をクリック。


過去の火山に関するブログ
浅間山噴火 火山灰と飛行機
浅間山噴火 火山灰と飛行機 その2


ブリティッシュ・エアウェイズ9便エンジン故障事故 ウィキペディアより
ブリティッシュ・エアウェイズ9便エンジン故障事故




 
ブログランキングに参加しています。
にほんブログ村 環境ブログ 天気・気象学へ
にほんブログ村
応援クリックをおねがします。


以下、アフィリエイトサイトです。



13:48  |  火山灰  |  TB(0)  |  CM(0)  |  EDIT  |  Top↑

2010.05.28 (Fri)

武装パイロット

なんじゃこりゃという記事を見つけました。



米政府公認「武装パイロット」の危険度
ニューズウィーク日本版5月27日(木) 12時28分配信 / 海外 - 海外総合
9.11以降に始まった米政府の武装パイロット養成プログラムの参加者らしき容疑者が、「派手に自殺してやる」と宣言して逮捕された。危ない操縦士は彼だけなのか──

マーク・ホーゼンボール(ワシントン支局)

 9・11テロの後、連邦政府はパイロットを武装させるプログラムを発足させた。正式には「連邦航空保安官(FFDO)」の養成プログラムだ。これまでに失格したパイロットや客室乗務員は約50人だと、国土安全保障省の報道官は本誌に語った。失格の理由については、「標準の運用手順」に「違反」したから、としか言えないという。

 この独占情報が明らかになったのは、先週、米格安航空ジェットブルーのパイロットがボストン・ローガン国際空港で逮捕される事件があったからだ。ボストンのラジオ局WBZのウェブサイトによれば、このパイロットは「派手なやり方で」自殺してやると宣言したという。空港の連邦保安局責任者ジョージ・ナッカラは、WBZに次のように語っている。「飛行機を落とすとは一度も言っていない。自殺すると言っただけだ。それも『派手なやり方で』。だが墜落させるとか、他の誰かを傷つけるようなことは言っていない」

■誤って飛行中に発砲した乗員も

 マサチューセッツ州警察の広報担当者、デービッド・プロコピオが本誌に語ったところによると、自殺の脅しはテキストメッセージで送信され、州警察や連邦航空警察が空港のパイロット専用ラウンジで彼を見つけたとき、彼は弾をこめた銃をもっていた。パイロットは銃を警察に渡し、病院に運ばれた(精神鑑定も行われることになる、と警察は言う)。

 プロコピオによれば、州の検事局はこのパイロットを起訴しない方針だ。警察関係者によれば、FFDOの一員として銃を所持していたのであれば犯罪の立件はほとんど不可能だと言う。

 FFDOプログラムを所管する国土安全保障省運輸保安庁(TSA)の報道官、スターリング・ペインは、逮捕されたパイロットがこのFFDOの一員かどうかのコメントを拒否した。「安全上の理由から、TSAはFFDOの参加者が誰かを明かすことはできない」のだと、ペインは言う。だが航空安全行政に詳しい連邦職員2人は匿名を条件に、このパイロットがFFDOの一員であることを確認した。

 TSAによれば、FFDOからの脱落者の比率は参加者の0.5%に過ぎないという。また航空行政当局によれば、現在FFDOに参加しているパイロットや航空士、航空機関士は1万人以上にのぼるという。だとすれば、これまでの脱落者はざっと50人になる。航空行政当局によれば理由はさまざまで、射撃試験に落ちた者もいれば、飛行中に誤まって発砲したパイロットもいたという。

■軍歴があるから銃の扱いも楽勝?

 政府関係者によれば、FFDOに参加しているのは射撃訓練や自衛訓練で乗っ取り犯の攻撃をかわせる能力を身に付けたいと志願したパイロットなどの運行乗務員たちだという。政府はパンフレットで、FFDOの訓練は肉体的に厳しく、訓練費用も自腹であることを警告している。

 9・11テロ後多くのパイロットが、シートベルトを締めた状態で襲われれば無防備すぎると不満を表明したのを受けて、FFDOは始まった。パイロットたちの言い分では、彼らの多くは軍人の経歴をもっているので、銃を持って自衛する資格は十二分に備わっているという。国土安全保障省は今でも、国内線と国際線の両方に武装した航空警察を配置しているが、彼らは客室にいてコックピットにはいない。



 
ブログランキングに参加しています。
にほんブログ村 環境ブログ 天気・気象学へ
にほんブログ村
応援クリックをおねがします。


以下、アフィリエイトサイトです。



01:57  |  航空機  |  TB(0)  |  CM(0)  |  EDIT  |  Top↑

2010.05.27 (Thu)

雷三日 寒冷渦の影響

落雷車



RJTT 270533Z 21010KT 9999 R34L///// R22///// R16L/1400VP1800D +SHRA FEW011 SCT030TCU BKN040 19/15 Q1004 RMK 1CU011 3TCU030 6CU040 A2966 2000NW-N TCU OHD MOV SE RI++


RJAA 270936Z 11011KT 8000 SHRA SCT012 FEW020TCU BKN070 16/14 Q1006 RMK 3CU012 2TCU020 7AC070 A2971 4000N-NE TCU OHD MOV SE


雷三日と言われるとおり、寒冷渦の影響で雷雨か大雨が空港を襲っています。


今回の寒冷渦は典型的な形で、衛星画像からも読み取れ、天気予報でも「上空の寒気」という言葉で置き換えて、視聴者に説明しています。


これから、夏場にかけて河原でキャンプをするときに、その日を予報する天気予報において、「寒気」という言葉があったら、要注意です。


天気予報をしっかり聞くことによって、自分の命、家族の命を守ることができます。



 
ブログランキングに参加しています。
にほんブログ村 環境ブログ 天気・気象学へ
にほんブログ村
応援クリックをおねがします。


以下、アフィリエイトサイトです。



18:57  |  気象・天気  |  TB(0)  |  CM(0)  |  EDIT  |  Top↑

2010.05.26 (Wed)

気象警報・注意報、市町村単位の発表始まる

 気象庁は27日午後1時から、大雨や洪水などの気象警報・注意報の発表地域を市町村(東京23区は区ごと)単位に細分化した新たな発表方式をスタートさせました。



大雨などの警報が変わります ~大雨や洪水などの気象警報・注意報の改善について~ - 気象庁



 
ブログランキングに参加しています。
にほんブログ村 環境ブログ 天気・気象学へ
にほんブログ村
応援クリックをおねがします。


以下、アフィリエイトサイトです。



19:02  |  時事  |  TB(0)  |  CM(0)  |  EDIT  |  Top↑

2010.05.25 (Tue)

黄砂で黄色い夕焼け

本日は、大型ショッピングセンターへ買い物へ。


倉庫型のショッピングセンターです。


その帰り、夕方ですが、やたら風が強く、空は黄色く”もや”がかかったように見えました。


METARを確認してみると、黄砂が原因でした。



黄砂情報25MAY10




羽田空港
RJTT 250710Z 20021G31KT CAVOK 25/15 Q0998 RMK A2949

RJTT 250730Z 20017KT 7000 NSC 25/16 Q0998 RMK 1AC130 A2948

RJTT 250800Z 20023KT 6000 NSC 25/16 Q0998 RMK 1AC130 A2948

RJTT 250830Z 19019KT 5000 SA NSC 24/16 Q0998

RJTT 250900Z 19021KT 5000 SA NSC 23/17 Q0998 RMK A2948 YELLOW SAND

RJTT 250903Z 19022G32KT 5000 SA NSC 23/17 Q0998 RMK A2948 YELLOW SAND

RJTT 250930Z 20020KT 5000 SA NSC 23/17 Q0998 RMK A2949 YELLOW SAND

RJTT 251000Z 20019KT 5000 SA NSC 23/17 Q0999 RMK A2950 YELLOW SAND


成田空港
RJAA 250800Z 21014G25KT CAVOK 25/15 Q0998 WS R16R WS R16L NOSIG RMK A2948

RJAA 250830Z 20012KT 9000 NSC 24/16 Q0998 BECMG 21015G26KT

RJAA 250847Z 21015G25KT 170V240 9000 FEW035 BKN/// 24/16 Q0998 WS R16R WS R16L RMK 1CU035 A2950

RJAA 250900Z 20011KT 8000 FEW035 BKN/// 23/16 Q0998 WS R16L BECMG 21015G26KT RMK 1CU035 A2950

RJAA 250930Z 21013G24KT 170V240 5000 SA FEW030 BKN/// 23/17 Q0999 NOSIG RMK 1CU030 A2950 YELLOW SAND

RJAA 251000Z 21012G23KT 180V240 5000 SA FEW030 BKN/// 22/17 Q0999 WS R16R NOSIG RMK 1CU030 A2951 YELLOW SAND

RJAA 251030Z 21015KT 180V250 5000 SA FEW030 BKN/// 22/17 Q0999 WS R16R WS R16L TEMPO 21016G28KT 4000 SA

RJAA 251100Z 20015KT 5000 SA FEW030 BKN/// 22/17 Q0999 WS R16L TEMPO 21016G28KT 4000 SA RMK 1CU030 A2951 YELLOW SAND

RJAA 251130Z 20013KT 5000 SA FEW030 BKN/// 21/17 Q0999 WS R16R TEMPO 21015G26KT 4000 SA




 
ブログランキングに参加しています。
にほんブログ村 環境ブログ 天気・気象学へ
にほんブログ村
応援クリックをおねがします。


以下、アフィリエイトサイトです。



23:27  |  時事  |  TB(0)  |  CM(0)  |  EDIT  |  Top↑

2010.05.24 (Mon)

寒冷渦で雷三日

 前日のTAF、おおはずれでした。


原因は寒冷渦。


AUPQ35_24MAY10.jpg

AUPQ78_24MAY10.jpg


寒冷渦とは、wikiより抜粋。


寒冷低気圧
出典: フリー百科事典『ウィキペディア(Wikipedia)』
(寒冷渦 から転送)


アイスランド南西沖の寒冷低気圧(2003年9月4日)寒冷低気圧(かんれいていきあつ、cold low)とは、周囲より相対的に温度の低い寒気からなる低気圧のこと。寒冷渦、切離低気圧(cut off low, カットオフ低気圧、カットオフ・ロー)と呼ばれることもある。


目次
1 成因と特徴
2 寒冷低気圧と天候
3 出典
4 関連項目


成因と特徴
中緯度地域で偏西風の蛇行が激しくなると、蛇行が低緯度側へ張り出した部分(気圧の谷)が切り離されて独立した渦となることがある。この部分は極からの寒気が入り込んでいる部分であるので、周囲よりも寒冷な低気圧となる。

一般に寒冷低気圧は、寒気の塊であり密度が高いため、大気の高層では周囲との気圧差が大きく、地上付近ではそれよりも気圧差が小さい。一方で、大気のもっと高い層では寒気に引っ張られて、ここでも気圧差は小さい。立体的に見ると、周囲に比べ、はるか上空の大気が落ち込むとともに地上の空気が押し上げられて、上空の中層付近で空気が圧縮されたような構造をしている。また、渦の中心に寒気が引き付けられているため暖気が進入できず、前線ができない。

つまり、地上天気図では明瞭ではなく前線を伴わない小低気圧として描かれるが、高層天気図においては寒気を伴う非常に顕著な渦として描かれる。ただし、寒冷低気圧の渦が崩れて暖気が進入し、温帯低気圧に変わると、地上天気図上でも規模が大きくなる。

上空に寒気があると、雲が発達しやすくなり(大気の不安定)、上昇気流も誘発・増強されて、積乱雲が発達する。地上付近でも低圧なので、周囲の暖気や湿った空気が引き寄せられ、不安定度が増すことで、雲の成長が持続する。寒冷低気圧はこれをエネルギー源としている。


寒冷低気圧と天候
寒冷低気圧の通過の際は大気が非常に不安定となるため、積乱雲が発達して激しい雷雨や集中豪雨(冬季は大雪)をもたらすことがある。寒冷低気圧は偏西風の流れから切り離されているため動きが遅く悪天候が数日間続く。このことから「雷三日」という言い習わしがある。

日本周辺で夏季に発生する場合、アリューシャン列島からミッドウェー諸島近傍で発生した蛇行から切り離され、一週間程度で小笠原近海まで南西方向に進むケースが見られる。 これに対応して熱帯低気圧の発達が観測されることから、台風の発達との関連を指摘する研究がある。 気象研究所技術報告 第14号 1985 第2章

冬季に発生した場合、日本海側では大雪になることがある。ごく稀に関東平野など太平洋側にもに雪をもたらすことがある。

また、周期的な天候変化が特徴である春や秋に発生すると、雷雨や雹などをもたらし、動きが遅いために悪天候を持続させる。10月や5~6月はちょうど平地でも雹が降りやすい気温であり、雹の被害が発生しやすい。高山では雪になることもある。




午後3時ごろから7時ごろにかけて、成田、羽田は濃霧に覆われました。

RJAA 240616Z 15012KT 0400 R16R/1100D R16L/1100V1500D -DZ FG FEW001 BKN002 20/19 Q1001 RMK 1ST001 7ST002 A2958

RJTT 240700Z 25004KT 1400 R34L///// R22///// R34R/P1800N -SHRA BR PRFG FEW001 SCT003 BKN005 18/17 Q1000 RMK 1ST001 3ST003 7ST005 A2956 FG SW


 
ブログランキングに参加しています。
にほんブログ村 環境ブログ 天気・気象学へ
にほんブログ村
応援クリックをおねがします。


以下、アフィリエイトサイトです。



22:54  |  気象・天気  |  TB(0)  |  CM(0)  |  EDIT  |  Top↑

2010.05.23 (Sun)

傘をわすれずに、帰宅時。

RJTT 231100Z 09016KT 8000 -RA FEW008 SCT012 BKN050 17/15 Q1014 RMK 1ST008 3ST012 6SC050 A2995

RJTT 230840Z 2309/2412 09016KT 8000 -RA FEW010 SCT020 BKN050
BECMG 2313/2315 4000 -RA BR
TEMPO 2315/2318 3000 RA BR BKN007 BKN012
TEMPO 2318/2324 1500 RA BR BKN005 BKN010
BECMG 2400/2403 03004KT BKN008 BKN015
BECMG 2406/2409 16012KT 8000 NSW SCT010 BKN025


明日は、朝のうちに雨が上がり、日中はくもり。


夕方から晴れてくるようです。


けっこうまとまった雨が降るようで、通勤時はムシムシ。


雨降ってだるい。


帰りは傘を忘れないようにしないといけません。


 
ブログランキングに参加しています。
にほんブログ村 環境ブログ 天気・気象学へ
にほんブログ村
応援クリックをおねがします。


以下、アフィリエイトサイトです。



20:36  |  気象・天気  |  TB(0)  |  CM(0)  |  EDIT  |  Top↑

2010.05.22 (Sat)

真夏日 あちらこちらで

アツイよ。


アツイよ。


あっちっち。


群馬・館林で33.4度
   =各地で真夏日―気象庁
     5月21日16時6分配信 時事通信

 日本列島は21日、高気圧に覆われてよく晴れ、30度以上の真夏日となる所が多かった。気象庁によると、群馬県館林市では全国最高の33.4度。東京都心の大手町でも30.9度だった。22日も晴れるが、21日ほど暑くない見通し。

 群馬県では、前橋市でも32.0度となるなど、高温の地点が多かった。これは北西から山を越えてきた風によるフェーン現象の影響も考えられるという。

 2007年8月に日本の観測史上最高の40.9度を記録した埼玉県熊谷市と岐阜県多治見市では、それぞれ32.6度と32.3度だった。 



 
ブログランキングに参加しています。
にほんブログ村 環境ブログ 天気・気象学へ
にほんブログ村
応援クリックをおねがします。


以下、アフィリエイトサイトです。



20:30  |  気象・天気  |  TB(0)  |  CM(0)  |  EDIT  |  Top↑

2010.05.21 (Fri)

気温30度超えるか?

RJTT 210400Z 18012KT 9999 FEW030 27/12 Q1008 RMK 1CU030 A2977 MOD TURB 4000FT 5NM E KISARAZU BY B767 AT 0337


お昼で27度。


気温と露点差が15度も開いています。


日射で気温がぐんぐん上昇。


低層で揺れの場ができる天気です。


CAT注意です。



 
ブログランキングに参加しています。
にほんブログ村 環境ブログ 天気・気象学へ
にほんブログ村
応援クリックをおねがします。


以下、アフィリエイトサイトです。



13:41  |  気象・天気  |  TB(0)  |  CM(0)  |  EDIT  |  Top↑

2010.05.20 (Thu)

雷とどろき、霧に覆われる

RJAA 201118Z 33009KT 2500 TSRA BR FEW001 SCT002 BKN004 SCT030CB 19/19 Q1009 RMK 1ST001 4ST002 7ST004 3CB030 A2979 FBL TS OHD MOV E CB 20KM SW MOV E


夕方から夜にかけて、関東地方を雷雲が通っていきました。


その後、晴れ。


そうすると、明日は成田の霧が気になります。


明日は、関東で真夏日になるとか。


カラっとした晴れになるでしょう。



 
ブログランキングに参加しています。
にほんブログ村 環境ブログ 天気・気象学へ
にほんブログ村
応援クリックをおねがします。


以下、アフィリエイトサイトです。



23:06  |  気象・天気  |  TB(0)  |  CM(0)  |  EDIT  |  Top↑

2010.05.19 (Wed)

むずかしい日本語

 昨日、あるテレビ番組、町や遊園地などの施設で鬼ごっこをして、逃げぬくと賞金がもらえる番組を見ていたのですが。。。


「無実の容疑がかけられた」


と、あれっと思う字幕がでました。


???


”無実の容疑者”なら解るのだが、「無実の容疑」って、なに!?


 そうそう、”頑張る”という言葉も、「顔晴る」って書く(うつ)らしい。


いったい、なにが正しいのか???


 昔、髪を染めた女子高校生の集団6人ほどが、なぜかしゃぶしゃぶ屋で、制服を着たまましゃぶしゃぶ食っていたとなりに座ったときのこと。


「わたしらって”おやこうこう”じゃねぇ?」


「だよねぇ」


「ていうか、”おやこうこう”って、漢字でどうか書くんだっけ?」


「???」


「親の幸せを考えるじゃねぇ」


おしいけど、言葉にはちょっと感動。


正解は「親孝行」



 
ブログランキングに参加しています。
にほんブログ村 環境ブログ 天気・気象学へ
にほんブログ村
応援クリックをおねがします。


以下、アフィリエイトサイトです。



23:45  |  ワタクシゴト  |  TB(0)  |  CM(0)  |  EDIT  |  Top↑

2010.05.18 (Tue)

夕方の強風

アイスランドの火山灰の動向が気になります。


VA18MAY2010.jpg



欧州火山灰動向予報 ← クリック



火山灰が飛行機の運航に影響する理由に興味のある方は、下記をクリック。


過去の火山に関するブログ
浅間山噴火 火山灰と飛行機
浅間山噴火 火山灰と飛行機 その2


ブリティッシュ・エアウェイズ9便エンジン故障事故 ウィキペディアより
ブリティッシュ・エアウェイズ9便エンジン故障事故




高気圧の縁を通って、南風が強く、半そでで行動しているとちょっと寒かったです。


昼から強風が吹き始め、夕方まで15メートル近くの風が吹いていました。


RJTT 180400Z 19022G32KT 9999 FEW030 BKN/// 24/12 Q1016 RMK 1CU030 A3002


RJTT 180900Z 19022G33KT 9999 FEW030 SCT180 BKN/// 22/12 Q1014 RMK 1CU030 4AC180 A2995


明日は夕方から雨のようです。


傘は必須です。




 
ブログランキングに参加しています。
にほんブログ村 環境ブログ 天気・気象学へ
にほんブログ村
応援クリックをおねがします。


以下、アフィリエイトサイトです。



22:48  |  気象・天気  |  TB(0)  |  CM(0)  |  EDIT  |  Top↑

2010.05.17 (Mon)

悪夢ふたたび、欧州火山灰 空港閉鎖

VA17MAY2010.jpg



速報  ロンドン、アムステルダムなどが閉鎖されたようです。


EGLL 170220Z 28003KT CAVOK 06/03 Q1020

EGLL 162300Z 1700/1806 30006KT 9999 SCT030
PROB30
TEMPO 1709/1716 7000 SHRA



EHAM 170225Z 24008KT 6000 FEW007 10/09 Q1017 TEMPO RA BECMG 9999

EHAM 162259Z 1700/1806 23005KT 9999 SCT020 BKN040
TEMPO 1700/1705 6000 RA BKN006
PROB30
TEMPO 1700/1706 4000 BR
BECMG 1705/1708 30008KT 9999 SCT025
PROB40
TEMPO 1708/1715 6000 -SHRA SCT018CB
BECMG 1710/1713 32014KT
BECMG 1719/1722 32005KT CAVOK
PROB30 1800/1806 3000 BCFG










欧州火山灰動向予報 ← クリック



火山灰が飛行機の運航に影響する理由に興味のある方は、下記をクリック。


過去の火山に関するブログ
浅間山噴火 火山灰と飛行機
浅間山噴火 火山灰と飛行機 その2


ブリティッシュ・エアウェイズ9便エンジン故障事故 ウィキペディアより
ブリティッシュ・エアウェイズ9便エンジン故障事故



 
ブログランキングに参加しています。
にほんブログ村 環境ブログ 天気・気象学へ
にほんブログ村
応援クリックをおねがします。


以下、アフィリエイトサイトです。



11:45  |  火山灰  |  TB(0)  |  CM(0)  |  EDIT  |  Top↑

2010.05.16 (Sun)

茶摘み

1.
夏も近づく八十八夜

野にも山にも若葉が茂る

「あれに見えるは茶摘みぢやないか

あかねだすきに菅(すげ)の笠」


2.
日和(ひより)つづきの今日このごろを

心のどかに摘みつつ歌ふ

「摘めよ摘め摘め摘まねばならぬ

摘まにゃ日本(にほん)の茶にならぬ」



 この歌は「茶摘み」。


 八十八夜(はちじゅうはちや)は、雑節のひとつで、立春を起算日(第1日目)として88日目、すなわち、立春の87日後の日になります。


だいたい、5月の2日あたりになります。


 静岡のほうへ遊びに行ったので、茶畑の中を走ってきましたが、茶摘をしている様子を見ることはできませんでした。


けれど、きれいな富士山を見ることができました。


 
ブログランキングに参加しています。
にほんブログ村 環境ブログ 天気・気象学へ
にほんブログ村
応援クリックをおねがします。


以下、アフィリエイトサイトです。



21:39  |  二十四節気  |  TB(0)  |  CM(0)  |  EDIT  |  Top↑

2010.05.15 (Sat)

神社へおまいり

 よい天気です。


今日は、神社へおまいりに。


すると、花嫁さんがいました。


土曜日ですからね。


神社で結婚式、風流ですねぇ。



 
ブログランキングに参加しています。
にほんブログ村 環境ブログ 天気・気象学へ
にほんブログ村
応援クリックをおねがします。


以下、アフィリエイトサイトです。



22:31  |  ワタクシゴト  |  TB(0)  |  CM(0)  |  EDIT  |  Top↑

2010.05.14 (Fri)

野菜もね

 平年のおよそ4割高いそうです。


寒暖の激しさ、日照不足が影響しているようで、作物によっては秋まで影響するようです。


野菜も値上がりか・・・
00:16  |  時事  |  TB(0)  |  CM(0)  |  EDIT  |  Top↑

2010.05.13 (Thu)

やっぱり米、上がるのかな

 先月あたりの寒暖の激しさと降雪などの被害により、すでに農作物はやられています。


また、稲やその他の苗もやられたと聞いたことがあります。


今年は、米の不作がありうるのでは。


米価の値上がりかも。。。



エルニーニョ現象、終息へ
   =北日本の夏は涼しく-気象庁
     5月11日17時37分配信 時事通信


 気象庁は11日、太平洋赤道域の中央から東部の海面水温が高くなるエルニーニョ現象が、今月中にも終息するとみられると発表した。

 同庁によると、インド洋熱帯域の海面水温が、今夏にかけて高い状態が続く見通しのため、夏は北日本(北海道と東北)で気温が低く、沖縄で高くなる可能性があるという。

 また、秋にはエルニーニョ現象とは逆に海面水温が低くなるラニーニャ現象が発生する可能性があるという。ラニーニャ現象が起きた場合、日本の冬は北日本をのぞき、気温が例年より低くなる傾向があるという。 



 
ブログランキングに参加しています。
にほんブログ村 環境ブログ 天気・気象学へ
にほんブログ村
応援クリックをおねがします。


以下、アフィリエイトサイトです。



16:31  |  時事  |  TB(0)  |  CM(0)  |  EDIT  |  Top↑

2010.05.12 (Wed)

雷雨到来

RJAA 120730Z 12005KT 060V180 9999 FEW020CB 17/10 Q1002 TEMPO 3000 TSRA RMK 1CB020 A2961 CB 20KM N MOV SE

RJAA 120742Z 17003KT 100V220 9999 TS VCSH FEW020CB SCT040 17/10 Q1002 RMK 1CB020 3SC040 A2961 MOD TS 15KM NE MOV SE

RJAA 120800Z 09004KT 010V130 9999 TS VCSH FEW020 SCT030CB 17/10 Q1003 BECMG 36008KT TEMPO 3000 TSRA RMK 1CU020 3CB030 A2962 FBL TS 15KM N MOV SE CB OHD MOV SE


関東、ところどころ雷雨。


成田空港に雷雨到来。



 
ブログランキングに参加しています。
にほんブログ村 環境ブログ 天気・気象学へ
にほんブログ村
応援クリックをおねがします。


以下、アフィリエイトサイトです。



23:47  |  気象・天気  |  TB(0)  |  CM(0)  |  EDIT  |  Top↑

2010.05.11 (Tue)

桜島を忘れちゃ困るよ。ちぇすとー!!

桜島噴火



 桜島、今年、活発です。


鹿児島といえば、桜島。


毎日、桜島の噴煙や風向、風速、洗濯予報を報道しているのは有名なはなし。


下記は、気象庁の監視カメラサイト

気象庁火山監視カメラ



アイスランドの噴火は相変わらず続いています。


欧州方面、旅行やビジネス関係の方々、注意が必要です。


VA11MAY2010.jpg




欧州火山灰動向予報 ← クリック



火山灰が飛行機の運航に影響する理由に興味のある方は、下記をクリック。


過去の火山に関するブログ
浅間山噴火 火山灰と飛行機
浅間山噴火 火山灰と飛行機 その2


ブリティッシュ・エアウェイズ9便エンジン故障事故 ウィキペディアより
ブリティッシュ・エアウェイズ9便エンジン故障事故



桜島、爆発的噴火500回に
   =2年連続-鹿児島
     5月11日10時19分配信 時事通信


 11日午前2時2分、鹿児島県・桜島で爆発的噴火があり、今年の爆発的噴火の回数は500回となった。鹿児島地方気象台によると、観測史上最多の548回を記録した昨年に続き2回目。昨年の5月11日は計80回で、今年は昨年よりも多い頻度で起きている。

 今年の爆発的噴火はいずれも昭和火口からで、比較的小規模という。同気象台は「桜島は活発化の傾向にあるが、今のところ、すぐに大規模噴火が起こる兆候はない」としている。 



 
ブログランキングに参加しています。
にほんブログ村 環境ブログ 天気・気象学へ
にほんブログ村
応援クリックをおねがします。


以下、アフィリエイトサイトです。



15:09  |  火山灰  |  TB(0)  |  CM(0)  |  EDIT  |  Top↑

2010.05.10 (Mon)

やばいよ、火山灰さん!

LFPG 101000Z 03010KT 360V080 9999 BKN020 SCT250 14/08 Q1007 NOSIG


パリのお昼、サマータイムでちょうど正午、曇り空。


だけど、上空には!?


VA10MAY2010.jpg


20100510/1200Z衛星画像 たぶん赤外 IR
VIS1200Z10MAY2010.jpg



VA1200Z10MAY2010.jpg



以前だったら、閉鎖しててもおかしくないような。


どういう基準で決めているのでしょう。


ただ、いつ閉鎖になってもおかしくはないという状態は続いています。



欧州火山灰動向予報 ← クリック



火山灰が飛行機の運航に影響する理由に興味のある方は、下記をクリック。


過去の火山に関するブログ
浅間山噴火 火山灰と飛行機
浅間山噴火 火山灰と飛行機 その2


ブリティッシュ・エアウェイズ9便エンジン故障事故 ウィキペディアより
ブリティッシュ・エアウェイズ9便エンジン故障事故



 
ブログランキングに参加しています。
にほんブログ村 環境ブログ 天気・気象学へ
にほんブログ村
応援クリックをおねがします。


以下、アフィリエイトサイトです。



23:45  |  火山灰  |  TB(0)  |  CM(0)  |  EDIT  |  Top↑

2010.05.09 (Sun)

欧州欠航ふたたび

欧州火山灰動向予報 ← クリック



VA08MAY2010.jpg


火山灰が飛行機の運航に影響する理由に興味のある方は、下記をクリック。


過去の火山に関するブログ
浅間山噴火 火山灰と飛行機
浅間山噴火 火山灰と飛行機 その2


ブリティッシュ・エアウェイズ9便エンジン故障事故 ウィキペディアより
ブリティッシュ・エアウェイズ9便エンジン故障事故




 悪夢ふたたびか?


ユーロ危機の後、これじゃぁ、欧州の経済は、いったい???


不安が広がりそうです。


ここまで来るとGDPにも影響してきそうですね。


 イギリスでは政局不安定。


天災との複合が心配されます。


日本もアツイこといっぱいなので、他国のことをとやかく言ってる場合ではないですけど。



スペイン、火山灰で19空港閉鎖
   =仏、ポルトガルでも欠航相次ぐ
     5月8日21時42分配信 時事通信


 【パリ時事】スペインの民間航空当局は8日、国内第2の空港であるバルセロナをはじめ、ビルバオ、サンセバスチャンなど北部の19空港が閉鎖されたと発表した。アイスランドの火山噴火に伴う火山灰の影響で、閉鎖は少なくとも同日午後(日本時間9日未明)まで続くという。

 また、ポルトガルでもリスボンなど3空港で合わせて100便以上が欠航したほか、仏南部マルセイユでも欠航が相次いだ。欧州航空管制機関ユーロコントロールによると、火山灰がポルトガルからスペイン、仏南部にかけて広がり、この地域の空港は閉鎖の可能性がある。 



 
ブログランキングに参加しています。
にほんブログ村 環境ブログ 天気・気象学へ
にほんブログ村
応援クリックをおねがします。


以下、アフィリエイトサイトです。



00:39  |  火山灰  |  TB(0)  |  CM(0)  |  EDIT  |  Top↑

2010.05.08 (Sat)

黄色い砂に注意

 GWにて、クーラーをかけた人も多いのでは、わたしもそう。


でも、気温が下がるみたいです。


服装に気をつけて、体を壊さないようにしましょう。


夕方には、黄砂が降るようです。


今日、車を洗うのはやめましょう。




週明けから全国的に低温か=気象庁が注意呼び掛け5月7日20時12分配信 時事通信


 気象庁が7日発表した1カ月予報と異常天候早期警戒情報によると、8日ごろに北日本(北海道と東北)に寒気が流れ込み、10日ごろから16日ごろにかけて全国的に気温が平年より低い状態が続く見通し。大型連休中、真夏を思わせる暑さが続いた後だけに、同庁は注意を呼び掛けている。 


 
ブログランキングに参加しています。
にほんブログ村 環境ブログ 天気・気象学へ
にほんブログ村
応援クリックをおねがします。


以下、アフィリエイトサイトです。



11:31  |  時事  |  TB(0)  |  CM(0)  |  EDIT  |  Top↑

2010.05.07 (Fri)

大注目!火山灰ふたたび!!

 忘れかけてはいけません。


狙ったかのように日本のGWが終わりそうな4日から、またも活発化!


7日に火山灰予報を見たところ、ちょっとやばいんじゃないか、と感じるほどの広がり。


火山灰が30000ftを超えているところがやばい。


広範囲に広がる恐れあり。


 また、源である火山はいまだ活発。


大注目です!!


VA06MAY2010.jpg


VA07MAY2010.jpg



英スコットランドなどで空港一時閉鎖 火山活発化で


ロンドン(CNN) 英民間航空局(CAA)は、アイスランドの火山で噴火活動が活発化したとして、北部スコットランドと北アイルランドで5日、上空の一部を飛行禁止とし、空港を一時閉鎖すると発表した。

CAAによると、5日午前7時(日本時間同日午後4時)から、スコットランドのグラスゴー、インバネスなど9カ所と、北アイルランドのデリー空港を閉鎖する。北アイルランド・ベルファスト空港も終日閉鎖される。インバネス空港は午後1時に、残りの全空港は午後7時に再開する見通しだという。

中部イングランドの各空港は閉鎖を予定していないが、火山灰が近くまで流れる可能性があり、当局は旅行者らに航空各社の運航状況をチェックするよう呼びかけている。アイルランドでは4日、火山灰への警戒から、国内の空港での航空機の離着陸が一時的に停止されていた。

欧州では4月、アイスランドの火山噴火の影響で各地の空港が6日間にわたって閉鎖され、航空網がまひ状態に陥った。欧州連合(EU)は4日、ブリュッセルで運輸相会合を開き、火山灰による空の混乱を防ぐ措置として、域内の航空管制一元化など、協調態勢を強化することで合意した。




ブログランキングに参加しています。
にほんブログ村 環境ブログ 天気・気象学へ
にほんブログ村
応援クリックをおねがします。


以下、アフィリエイトサイトです。



23:21  |  火山灰  |  TB(0)  |  CM(0)  |  EDIT  |  Top↑

2010.05.06 (Thu)

沖縄、入梅

ほぼ平年なんですけど。


もう、こんな季節かぁ。


はやいねぇ。



沖縄、奄美が梅雨入り
   =気象庁
     5月6日15時17分配信 時事通信


 気象庁は6日、沖縄県と鹿児島県の奄美地方が梅雨入りしたとみられると発表した。 


 
ブログランキングに参加しています。
にほんブログ村 環境ブログ 天気・気象学へ
にほんブログ村
応援クリックをおねがします。


以下、アフィリエイトサイトです。



23:32  |  時事  |  TB(0)  |  CM(0)  |  EDIT  |  Top↑

2010.05.05 (Wed)

立夏

立夏(りっか)

 二十四節気のひとつで例年5月6日ごろになり、この日から小満までの期間にあたります。


太陽黄径


 太陽黄経は45度です。



 暦便覧には「夏の立つがゆへなり」と記され、夏の気配が感じられ始める四月節です。


 春分と夏至の中間にあたり、昼夜の長短を基準に季節を区分すると、この日から立秋の前日までが夏となります。

 田には水が引かれ、水田となり、かえるの大合唱が聞こえ始めるころでもあります。


トノサマガエル




立夏の期間の七十二候は以下の通り。

初候
蛙始鳴     (かえる はじめて なく)
          蛙が鳴き始める(日本)
螻蝈鳴     (ろうこく なく)
          雨蛙が鳴き始める(中国)


次候
蚯蚓出     (きゅういん いずる)
          蚯蚓(ミミズ)が地上に這出る(日本・中国)

末候
竹笋生     (ちくかん しょうず)
          筍が生えて来る(日本)
王瓜生     (おうか しょうず)
          王瓜(カラスウリ)の実が生り始める(中国)






 
ブログランキングに参加しています。
にほんブログ村 環境ブログ 天気・気象学へ
にほんブログ村
応援クリックをおねがします。


以下、アフィリエイトサイトです。



23:01  |  二十四節気  |  TB(0)  |  CM(0)  |  EDIT  |  Top↑

2010.05.04 (Tue)

夏日と真夏日

広島で夏日。


南風ふいて、地形の影響も考えられます。


ちなみに広島西飛行場では、


RJBH 040400Z 23004KT CAVOK 23/13 Q1015

RJBH 040500Z 22008KT CAVOK 24/13 Q1014

RJBH 040600Z 23008KT CAVOK 23/12 Q1013


少し高台の広島空港では、


RJOA 040400Z 21006KT 170V250 CAVOK 23/13 Q1016

RJOA 040500Z 18006KT 120V240 9999 FEW040 25/13 Q1015

RJOA 040600Z 20006KT 170V230 9999 FEW040 25/13 Q1015



広島で全国最高30.7度
   =各地で真夏日-気象庁
     5月4日18時7分配信 時事通信


 日本列島は4日、東北地方の太平洋側から南で気温が上昇した。気象庁によると、広島・加計(安芸太田町)で全国トップの30.7度を観測したのをはじめ、最高気温が30度以上の真夏日や25度以上の夏日となった所が多かった。

 これは、日本列島が東の海上にある高気圧に広く覆われ、南から暖かく湿った空気が入ってきたため。5日も同様の暑い日となる見込み。6日以降は天気が崩れ、曇りや雨の所が多くなるという。 




 
ブログランキングに参加しています。
にほんブログ村 環境ブログ 天気・気象学へ
にほんブログ村
応援クリックをおねがします。


以下、アフィリエイトサイトです。



22:01  |  時事  |  TB(0)  |  CM(0)  |  EDIT  |  Top↑

2010.05.03 (Mon)

人は神を超えるのか

 人工降雨を知っていますか?


言葉通り、人工的に雨を降らせることです。


雨を降らせる理由は2つ。


①雨が降ってほしいから。


②晴れてほしいから。


 今、このGWは五月晴れです。


そう、上海万博開幕のあたりからいい天気です。


 こんなこと書く理由に明確な根拠はありませんが、北京五輪の数年前より、8月8日に予定されていた開会式を晴れさせるため、人工降雨で雨雲を消散させる計画がありました。


実際に、開会式当日にヨウ化銀を含んだ小型ロケットおよそ1000発が発射されたそうです。


 そして、オリンピックも万博も快晴。


神の領域であった気象は、すこしずつ人によって侵されつつあるということです。


さて、この青い空は、神が用意したのか、はたまた。。。


 
ブログランキングに参加しています。
にほんブログ村 環境ブログ 天気・気象学へ
にほんブログ村
応援クリックをおねがします。


以下、アフィリエイトサイトです。



20:12  |  気象・天気  |  TB(0)  |  CM(0)  |  EDIT  |  Top↑

2010.05.02 (Sun)

こねた、気象に関係なし

さまざまな疑惑


有名な歌





そして「Gumby」

Gumby.jpg


海宝



これは完全に違うでしょ。パビリオン。


やりすぎ。

セビリア万博日本館


上海万博中国館




 
ブログランキングに参加しています。
にほんブログ村 環境ブログ 天気・気象学へ
にほんブログ村
応援クリックをおねがします。


以下、アフィリエイトサイトです。



23:30  |  時事  |  TB(0)  |  CM(0)  |  EDIT  |  Top↑
 | BLOGTOP |  NEXT
上記広告は1ヶ月以上更新のないブログに表示されています。新しい記事を書くことで広告を消せます。